sensor_id;sensor_type;location;lat;lon;timestamp;P1;durP1;ratioP1;P2;durP2;ratioP2
35243;SDS011;37916;52.160;21.066;2024-01-30T00:05:46;35.08;;;16.33;;
35243;SDS011;37916;52.160;21.066;2024-01-30T00:15:47;29.35;;;16.20;;
35243;SDS011;37916;52.160;21.066;2024-01-30T00:25:49;36.95;;;17.55;;
35243;SDS011;37916;52.160;21.066;2024-01-30T00:35:50;33.53;;;16.70;;
35243;SDS011;37916;52.160;21.066;2024-01-30T00:45:51;34.17;;;16.67;;
35243;SDS011;37916;52.160;21.066;2024-01-30T00:55:52;29.27;;;16.10;;
35243;SDS011;37916;52.160;21.066;2024-01-30T01:05:53;31.38;;;16.92;;
35243;SDS011;37916;52.160;21.066;2024-01-30T01:15:54;32.72;;;15.75;;
35243;SDS011;37916;52.160;21.066;2024-01-30T01:25:55;29.73;;;15.90;;
35243;SDS011;37916;52.160;21.066;2024-01-30T01:35:56;31.95;;;15.75;;
35243;SDS011;37916;52.160;21.066;2024-01-30T01:45:57;34.83;;;16.38;;
35243;SDS011;37916;52.160;21.066;2024-01-30T01:55:58;33.25;;;16.23;;
35243;SDS011;37916;52.160;21.066;2024-01-30T02:06:00;31.55;;;16.63;;
35243;SDS011;37916;52.160;21.066;2024-01-30T02:16:02;31.23;;;15.73;;
35243;SDS011;37916;52.160;21.066;2024-01-30T02:26:03;32.05;;;16.58;;
35243;SDS011;37916;52.160;21.066;2024-01-30T02:36:04;30.35;;;14.63;;
35243;SDS011;37916;52.160;21.066;2024-01-30T02:46:05;30.30;;;14.73;;
35243;SDS011;37916;52.160;21.066;2024-01-30T02:56:06;31.58;;;15.25;;
35243;SDS011;37916;52.160;21.066;2024-01-30T03:06:09;31.97;;;16.00;;
35243;SDS011;37916;52.160;21.066;2024-01-30T03:16:10;28.40;;;15.55;;
35243;SDS011;37916;52.160;21.066;2024-01-30T03:26:11;28.77;;;15.15;;
35243;SDS011;37916;52.160;21.066;2024-01-30T03:36:14;36.58;;;16.30;;
35243;SDS011;37916;52.160;21.066;2024-01-30T03:46:16;28.65;;;15.52;;
35243;SDS011;37916;52.160;21.066;2024-01-30T03:56:17;29.67;;;15.60;;
35243;SDS011;37916;52.160;21.066;2024-01-30T04:06:18;33.55;;;16.02;;
35243;SDS011;37916;52.160;21.066;2024-01-30T04:16:19;32.38;;;16.90;;
35243;SDS011;37916;52.160;21.066;2024-01-30T04:26:22;31.50;;;17.35;;
35243;SDS011;37916;52.160;21.066;2024-01-30T04:36:23;33.05;;;15.88;;
35243;SDS011;37916;52.160;21.066;2024-01-30T04:46:24;31.73;;;14.75;;
35243;SDS011;37916;52.160;21.066;2024-01-30T04:56:25;32.72;;;16.25;;
35243;SDS011;37916;52.160;21.066;2024-01-30T05:06:26;35.10;;;17.20;;
35243;SDS011;37916;52.160;21.066;2024-01-30T05:16:28;33.25;;;17.15;;
35243;SDS011;37916;52.160;21.066;2024-01-30T05:26:29;31.35;;;16.38;;
35243;SDS011;37916;52.160;21.066;2024-01-30T05:36:30;35.22;;;16.08;;
35243;SDS011;37916;52.160;21.066;2024-01-30T05:46:31;37.42;;;16.98;;
35243;SDS011;37916;52.160;21.066;2024-01-30T05:56:32;32.15;;;16.40;;
35243;SDS011;37916;52.160;21.066;2024-01-30T06:06:33;31.38;;;17.15;;
35243;SDS011;37916;52.160;21.066;2024-01-30T06:16:34;33.88;;;15.90;;
35243;SDS011;37916;52.160;21.066;2024-01-30T06:26:35;30.48;;;15.45;;
35243;SDS011;37916;52.160;21.066;2024-01-30T06:36:36;35.65;;;16.70;;
35243;SDS011;37916;52.160;21.066;2024-01-30T06:46:37;34.65;;;17.23;;
35243;SDS011;37916;52.160;21.066;2024-01-30T06:56:38;33.25;;;16.85;;
35243;SDS011;37916;52.160;21.066;2024-01-30T07:06:39;33.90;;;17.20;;
35243;SDS011;37916;52.160;21.066;2024-01-30T07:16:40;31.65;;;16.27;;
35243;SDS011;37916;52.160;21.066;2024-01-30T07:26:41;33.30;;;16.30;;
35243;SDS011;37916;52.160;21.066;2024-01-30T07:36:42;28.42;;;16.67;;
35243;SDS011;37916;52.160;21.066;2024-01-30T07:46:43;29.80;;;16.35;;
35243;SDS011;37916;52.160;21.066;2024-01-30T07:56:44;35.33;;;17.25;;
35243;SDS011;37916;52.160;21.066;2024-01-30T08:06:45;33.20;;;15.27;;
35243;SDS011;37916;52.160;21.066;2024-01-30T08:16:46;29.88;;;15.13;;
35243;SDS011;37916;52.160;21.066;2024-01-30T08:26:47;31.98;;;15.60;;
35243;SDS011;37916;52.160;21.066;2024-01-30T08:36:48;26.00;;;13.93;;
35243;SDS011;37916;52.160;21.066;2024-01-30T08:46:49;24.23;;;13.00;;
35243;SDS011;37916;52.160;21.066;2024-01-30T08:56:50;26.67;;;12.77;;
35243;SDS011;37916;52.160;21.066;2024-01-30T09:06:53;28.10;;;13.20;;
35243;SDS011;37916;52.160;21.066;2024-01-30T09:16:54;24.45;;;12.90;;
35243;SDS011;37916;52.160;21.066;2024-01-30T09:26:55;25.30;;;13.88;;
35243;SDS011;37916;52.160;21.066;2024-01-30T09:36:56;23.65;;;11.85;;
35243;SDS011;37916;52.160;21.066;2024-01-30T09:46:57;23.10;;;11.85;;
35243;SDS011;37916;52.160;21.066;2024-01-30T09:57:04;23.15;;;11.55;;
35243;SDS011;37916;52.160;21.066;2024-01-30T10:07:05;22.10;;;11.15;;
35243;SDS011;37916;52.160;21.066;2024-01-30T10:17:10;22.90;;;12.57;;
35243;SDS011;37916;52.160;21.066;2024-01-30T10:27:11;23.50;;;9.70;;
35243;SDS011;37916;52.160;21.066;2024-01-30T10:37:12;25.80;;;11.18;;
35243;SDS011;37916;52.160;21.066;2024-01-30T10:47:15;18.52;;;9.77;;
35243;SDS011;37916;52.160;21.066;2024-01-30T10:57:18;19.63;;;10.50;;
35243;SDS011;37916;52.160;21.066;2024-01-30T11:07:24;21.25;;;10.48;;
35243;SDS011;37916;52.160;21.066;2024-01-30T11:17:27;21.70;;;11.30;;
35243;SDS011;37916;52.160;21.066;2024-01-30T11:27:30;21.83;;;11.27;;
35243;SDS011;37916;52.160;21.066;2024-01-30T11:37:31;17.00;;;9.70;;
35243;SDS011;37916;52.160;21.066;2024-01-30T11:47:34;21.20;;;10.75;;
35243;SDS011;37916;52.160;21.066;2024-01-30T11:57:35;23.40;;;9.95;;
35243;SDS011;37916;52.160;21.066;2024-01-30T12:07:37;18.98;;;10.25;;
35243;SDS011;37916;52.160;21.066;2024-01-30T12:17:38;18.35;;;10.00;;
35243;SDS011;37916;52.160;21.066;2024-01-30T12:27:39;18.27;;;10.65;;
35243;SDS011;37916;52.160;21.066;2024-01-30T12:37:40;22.50;;;10.25;;
35243;SDS011;37916;52.160;21.066;2024-01-30T12:47:42;17.17;;;8.93;;
35243;SDS011;37916;52.160;21.066;2024-01-30T12:57:43;18.13;;;9.18;;
35243;SDS011;37916;52.160;21.066;2024-01-30T13:07:44;22.88;;;9.70;;
35243;SDS011;37916;52.160;21.066;2024-01-30T13:17:45;19.60;;;9.32;;
35243;SDS011;37916;52.160;21.066;2024-01-30T13:27:48;15.77;;;8.53;;
35243;SDS011;37916;52.160;21.066;2024-01-30T13:37:49;17.60;;;9.05;;
35243;SDS011;37916;52.160;21.066;2024-01-30T13:47:50;17.30;;;9.20;;
35243;SDS011;37916;52.160;21.066;2024-01-30T13:57:51;16.98;;;8.32;;
35243;SDS011;37916;52.160;21.066;2024-01-30T14:07:52;19.15;;;8.90;;
35243;SDS011;37916;52.160;21.066;2024-01-30T14:17:53;17.20;;;9.77;;
35243;SDS011;37916;52.160;21.066;2024-01-30T14:27:54;16.10;;;8.45;;
35243;SDS011;37916;52.160;21.066;2024-01-30T14:37:55;18.42;;;9.45;;
35243;SDS011;37916;52.160;21.066;2024-01-30T14:47:57;19.45;;;9.45;;
35243;SDS011;37916;52.160;21.066;2024-01-30T14:57:58;16.80;;;9.00;;
35243;SDS011;37916;52.160;21.066;2024-01-30T15:07:59;22.75;;;8.85;;
35243;SDS011;37916;52.160;21.066;2024-01-30T15:18:00;20.45;;;8.40;;
35243;SDS011;37916;52.160;21.066;2024-01-30T15:28:01;18.17;;;9.40;;
35243;SDS011;37916;52.160;21.066;2024-01-30T15:38:02;19.38;;;8.80;;
35243;SDS011;37916;52.160;21.066;2024-01-30T15:48:04;16.52;;;8.30;;
35243;SDS011;37916;52.160;21.066;2024-01-30T15:58:05;21.17;;;9.25;;
35243;SDS011;37916;52.160;21.066;2024-01-30T16:08:06;21.45;;;9.32;;
35243;SDS011;37916;52.160;21.066;2024-01-30T16:18:07;21.50;;;9.60;;
35243;SDS011;37916;52.160;21.066;2024-01-30T16:28:08;19.52;;;9.18;;
35243;SDS011;37916;52.160;21.066;2024-01-30T16:38:09;21.88;;;9.65;;
35243;SDS011;37916;52.160;21.066;2024-01-30T16:48:10;18.75;;;9.77;;
35243;SDS011;37916;52.160;21.066;2024-01-30T16:58:16;21.10;;;9.85;;
35243;SDS011;37916;52.160;21.066;2024-01-30T17:08:17;19.77;;;9.77;;
35243;SDS011;37916;52.160;21.066;2024-01-30T17:18:19;22.63;;;10.13;;
35243;SDS011;37916;52.160;21.066;2024-01-30T17:28:20;21.38;;;11.48;;
35243;SDS011;37916;52.160;21.066;2024-01-30T17:38:21;21.45;;;10.05;;
35243;SDS011;37916;52.160;21.066;2024-01-30T17:48:22;20.10;;;10.13;;
35243;SDS011;37916;52.160;21.066;2024-01-30T17:58:23;21.58;;;11.27;;
35243;SDS011;37916;52.160;21.066;2024-01-30T18:08:25;23.48;;;11.30;;
35243;SDS011;37916;52.160;21.066;2024-01-30T18:18:26;29.45;;;13.32;;
35243;SDS011;37916;52.160;21.066;2024-01-30T18:28:27;23.52;;;13.70;;
35243;SDS011;37916;52.160;21.066;2024-01-30T18:38:28;21.13;;;12.40;;
35243;SDS011;37916;52.160;21.066;2024-01-30T18:48:30;26.13;;;14.02;;
35243;SDS011;37916;52.160;21.066;2024-01-30T18:58:31;30.42;;;13.68;;
35243;SDS011;37916;52.160;21.066;2024-01-30T19:08:33;27.92;;;13.23;;
35243;SDS011;37916;52.160;21.066;2024-01-30T19:18:34;29.33;;;14.07;;
35243;SDS011;37916;52.160;21.066;2024-01-30T19:28:35;29.60;;;14.23;;
35243;SDS011;37916;52.160;21.066;2024-01-30T19:38:36;28.27;;;13.10;;
35243;SDS011;37916;52.160;21.066;2024-01-30T19:48:37;29.02;;;15.23;;
35243;SDS011;37916;52.160;21.066;2024-01-30T19:58:38;29.65;;;14.20;;
35243;SDS011;37916;52.160;21.066;2024-01-30T20:08:39;25.90;;;13.77;;
35243;SDS011;37916;52.160;21.066;2024-01-30T20:18:40;30.65;;;15.43;;
35243;SDS011;37916;52.160;21.066;2024-01-30T20:28:41;30.40;;;15.40;;
35243;SDS011;37916;52.160;21.066;2024-01-30T20:38:43;30.45;;;16.33;;
35243;SDS011;37916;52.160;21.066;2024-01-30T20:48:44;31.52;;;15.48;;
35243;SDS011;37916;52.160;21.066;2024-01-30T20:58:45;32.60;;;16.30;;
35243;SDS011;37916;52.160;21.066;2024-01-30T21:08:51;35.10;;;17.13;;
35243;SDS011;37916;52.160;21.066;2024-01-30T21:18:53;34.45;;;15.55;;
35243;SDS011;37916;52.160;21.066;2024-01-30T21:28:54;29.88;;;15.80;;
35243;SDS011;37916;52.160;21.066;2024-01-30T21:38:55;27.13;;;14.20;;
35243;SDS011;37916;52.160;21.066;2024-01-30T21:48:56;27.77;;;13.70;;
35243;SDS011;37916;52.160;21.066;2024-01-30T21:58:57;29.08;;;14.63;;
35243;SDS011;37916;52.160;21.066;2024-01-30T22:08:58;29.00;;;14.45;;
35243;SDS011;37916;52.160;21.066;2024-01-30T22:18:58;26.60;;;14.52;;
35243;SDS011;37916;52.160;21.066;2024-01-30T22:28:59;27.70;;;15.15;;
35243;SDS011;37916;52.160;21.066;2024-01-30T22:39:04;25.65;;;13.80;;
35243;SDS011;37916;52.160;21.066;2024-01-30T22:49:05;24.58;;;12.80;;
35243;SDS011;37916;52.160;21.066;2024-01-30T22:59:06;25.05;;;12.48;;
35243;SDS011;37916;52.160;21.066;2024-01-30T23:09:07;23.83;;;13.15;;
35243;SDS011;37916;52.160;21.066;2024-01-30T23:19:08;22.98;;;12.10;;
35243;SDS011;37916;52.160;21.066;2024-01-30T23:29:10;22.80;;;11.40;;
35243;SDS011;37916;52.160;21.066;2024-01-30T23:39:11;23.80;;;10.27;;
35243;SDS011;37916;52.160;21.066;2024-01-30T23:49:12;17.73;;;9.95;;
35243;SDS011;37916;52.160;21.066;2024-01-30T23:59:13;20.90;;;9.90;;
